Time,TemperatureF,DewpointF,PressureIn,WindDirection,WindDirectionDegrees,WindSpeedMPH,WindSpeedGustMPH,Humidity,HourlyPrecipIn,Conditions,Clouds,dailyrainin,SolarRadiationWatts/m^2,SoftwareType,DateUTC
2013-05-14 00:02:00,46.0,29.0,-100.00,SE,127,5.0,9.0,51,0.00,,,0.01,0.000000,,2013-05-14 05:02:00,
2013-05-14 00:22:00,43.0,28.0,-100.00,SSE,148,6.0,9.0,54,0.00,,,0.01,0.000000,,2013-05-14 05:22:00,
2013-05-14 00:32:00,43.0,28.0,-100.00,SSE,148,6.0,9.0,54,0.00,,,0.01,0.000000,,2013-05-14 05:32:00,
2013-05-14 00:42:00,43.0,28.0,-100.00,SSE,148,6.0,9.0,54,0.00,,,0.01,0.000000,,2013-05-14 05:42:00,
2013-05-14 00:52:00,43.0,28.0,-100.00,SSE,148,6.0,9.0,54,0.00,,,0.01,0.000000,,2013-05-14 05:52:00,
2013-05-14 01:01:00,43.0,28.0,-100.00,SSE,148,6.0,9.0,54,0.00,,,0.01,0.000000,,2013-05-14 06:01:00,
2013-05-14 01:32:00,41.0,27.0,-100.00,SE,135,5.0,8.0,56,0.00,,,0.01,0.000000,,2013-05-14 06:32:00,
2013-05-14 01:42:00,41.0,27.0,-100.00,SE,135,5.0,8.0,56,0.00,,,0.01,0.000000,,2013-05-14 06:42:00,
2013-05-14 01:52:00,41.0,27.0,-100.00,SE,135,5.0,8.0,56,0.00,,,0.01,0.000000,,2013-05-14 06:52:00,
2013-05-14 02:02:00,41.0,27.0,-100.00,SE,135,5.0,8.0,56,0.00,,,0.01,0.000000,,2013-05-14 07:02:00,
2013-05-14 02:32:00,40.0,26.0,-100.00,SE,129,5.0,9.0,58,0.00,,,0.01,0.000000,,2013-05-14 07:32:00,
2013-05-14 02:42:00,40.0,26.0,-100.00,SE,129,5.0,9.0,58,0.00,,,0.01,0.000000,,2013-05-14 07:42:00,
2013-05-14 02:52:00,40.0,26.0,-100.00,SE,129,5.0,9.0,58,0.00,,,0.01,0.000000,,2013-05-14 07:52:00,
2013-05-14 03:02:00,40.0,26.0,-100.00,SE,129,5.0,9.0,58,0.00,,,0.01,0.000000,,2013-05-14 08:02:00,
2013-05-14 03:22:00,39.0,27.0,-100.00,SSE,158,4.0,7.0,61,0.00,,,0.01,0.000000,,2013-05-14 08:22:00,
2013-05-14 03:32:00,39.0,27.0,-100.00,SSE,158,4.0,7.0,61,0.00,,,0.01,0.000000,,2013-05-14 08:32:00,
2013-05-14 03:42:00,39.0,27.0,-100.00,SSE,158,4.0,7.0,61,0.00,,,0.01,0.000000,,2013-05-14 08:42:00,
2013-05-14 03:52:00,39.0,27.0,-100.00,SSE,158,4.0,7.0,61,0.00,,,0.01,0.000000,,2013-05-14 08:52:00,
2013-05-14 04:02:00,39.0,27.0,-100.00,SSE,158,4.0,7.0,61,0.00,,,0.01,0.000000,,2013-05-14 09:02:00,
2013-05-14 04:04:00,38.0,27.0,-100.00,South,182,4.0,7.0,64,0.00,,,0.01,0.000000,,2013-05-14 09:04:00,
2013-05-14 04:33:00,38.0,27.0,-100.00,South,182,4.0,7.0,64,0.00,,,0.01,0.000000,,2013-05-14 09:33:00,
2013-05-14 04:44:00,38.0,27.0,-100.00,South,182,4.0,7.0,64,0.00,,,0.01,0.000000,,2013-05-14 09:44:00,
2013-05-14 04:54:00,38.0,27.0,-100.00,South,182,4.0,7.0,64,0.00,,,0.01,0.000000,,2013-05-14 09:54:00,
2013-05-14 05:33:00,39.0,29.0,-100.00,South,174,4.0,6.0,68,0.00,,,0.01,0.000000,,2013-05-14 10:33:00,
2013-05-14 05:42:00,39.0,29.0,-100.00,South,174,4.0,6.0,68,0.00,,,0.01,0.000000,,2013-05-14 10:42:00,
2013-05-14 05:52:00,39.0,29.0,-100.00,South,174,4.0,6.0,68,0.00,,,0.01,0.000000,,2013-05-14 10:52:00,
2013-05-14 06:02:00,39.0,29.0,-100.00,South,174,4.0,6.0,68,0.00,,,0.01,0.000000,,2013-05-14 11:02:00,
2013-05-14 06:32:00,41.0,32.0,-100.00,South,171,3.0,6.0,70,0.00,,,0.01,10.000000,,2013-05-14 11:32:00,
2013-05-14 06:43:00,41.0,32.0,-100.00,South,171,3.0,6.0,70,0.00,,,0.01,10.000000,,2013-05-14 11:43:00,
2013-05-14 06:53:00,41.0,32.0,-100.00,South,171,3.0,6.0,70,0.00,,,0.01,10.000000,,2013-05-14 11:53:00,
2013-05-14 07:02:00,41.0,32.0,-100.00,South,171,3.0,6.0,70,0.00,,,0.01,10.000000,,2013-05-14 12:02:00,
2013-05-14 07:22:00,43.0,32.0,-100.00,ESE,107,3.0,6.0,66,0.00,,,0.01,70.000000,,2013-05-14 12:22:00,
2013-05-14 07:32:00,43.0,32.0,-100.00,ESE,107,3.0,6.0,66,0.00,,,0.01,70.000000,,2013-05-14 12:32:00,
2013-05-14 07:42:00,43.0,32.0,-100.00,ESE,107,3.0,6.0,66,0.00,,,0.01,70.000000,,2013-05-14 12:42:00,
2013-05-14 07:52:00,43.0,32.0,-100.00,ESE,107,3.0,6.0,66,0.00,,,0.01,70.000000,,2013-05-14 12:52:00,
2013-05-14 08:01:00,43.0,32.0,-100.00,ESE,107,3.0,6.0,66,0.00,,,0.01,70.000000,,2013-05-14 13:01:00,
2013-05-14 08:22:00,45.0,34.0,-100.00,SSE,162,3.0,6.0,65,0.00,,,0.01,99.000000,,2013-05-14 13:22:00,
2013-05-14 08:32:00,45.0,34.0,-100.00,SSE,162,3.0,6.0,65,0.00,,,0.01,99.000000,,2013-05-14 13:32:00,
2013-05-14 08:42:00,45.0,34.0,-100.00,SSE,162,3.0,6.0,65,0.00,,,0.01,99.000000,,2013-05-14 13:42:00,
2013-05-14 08:52:00,45.0,34.0,-100.00,SSE,162,3.0,6.0,65,0.00,,,0.01,99.000000,,2013-05-14 13:52:00,
2013-05-14 09:01:00,45.0,34.0,-100.00,SSE,162,3.0,6.0,65,0.00,,,0.01,99.000000,,2013-05-14 14:01:00,
2013-05-14 09:22:00,48.0,36.0,-100.00,WSW,241,3.0,6.0,63,0.00,,,-99.99,79.000000,,2013-05-14 14:22:00,
2013-05-14 09:32:00,48.0,36.0,-100.00,WSW,241,3.0,6.0,63,0.00,,,-99.99,79.000000,,2013-05-14 14:32:00,
2013-05-14 09:42:00,48.0,36.0,-100.00,WSW,241,3.0,6.0,63,0.00,,,-99.99,79.000000,,2013-05-14 14:42:00,
2013-05-14 09:52:00,48.0,36.0,-100.00,WSW,241,3.0,6.0,63,0.00,,,-99.99,79.000000,,2013-05-14 14:52:00,
2013-05-14 10:01:00,48.0,36.0,-100.00,WSW,241,3.0,6.0,63,0.00,,,-99.99,79.000000,,2013-05-14 15:01:00,
2013-05-14 10:33:00,50.0,37.0,-100.00,SW,217,5.0,9.0,60,0.00,,,0.01,106.000000,,2013-05-14 15:33:00,
2013-05-14 10:43:00,50.0,37.0,-100.00,SW,217,5.0,9.0,60,0.00,,,0.01,106.000000,,2013-05-14 15:43:00,
2013-05-14 10:53:00,50.0,37.0,-100.00,SW,217,5.0,9.0,60,0.00,,,0.01,106.000000,,2013-05-14 15:53:00,
2013-05-14 11:02:00,50.0,37.0,-100.00,SW,217,5.0,9.0,60,0.00,,,0.01,106.000000,,2013-05-14 16:02:00,
2013-05-14 11:33:00,52.0,39.0,-100.00,South,176,5.0,11.0,61,0.00,,,0.01,127.000000,,2013-05-14 16:33:00,
2013-05-14 11:44:00,52.0,39.0,-100.00,South,176,5.0,11.0,61,0.00,,,0.01,127.000000,,2013-05-14 16:44:00,
2013-05-14 11:54:00,52.0,39.0,-100.00,South,176,5.0,11.0,61,0.00,,,0.01,127.000000,,2013-05-14 16:54:00,
2013-05-14 12:03:00,52.0,39.0,-100.00,South,176,5.0,11.0,61,0.00,,,0.01,127.000000,,2013-05-14 17:03:00,
2013-05-14 12:24:00,63.0,47.0,-100.00,South,174,6.0,12.0,56,0.00,,,0.01,592.000000,,2013-05-14 17:24:00,
2013-05-14 12:33:00,63.0,47.0,-100.00,South,174,6.0,12.0,56,0.00,,,0.01,592.000000,,2013-05-14 17:33:00,
2013-05-14 12:43:00,63.0,47.0,-100.00,South,174,6.0,12.0,56,0.00,,,0.01,592.000000,,2013-05-14 17:43:00,
2013-05-14 12:52:00,63.0,47.0,-100.00,South,174,6.0,12.0,56,0.00,,,0.01,592.000000,,2013-05-14 17:52:00,
2013-05-14 13:02:00,63.0,47.0,-100.00,South,174,6.0,12.0,56,0.00,,,0.01,592.000000,,2013-05-14 18:02:00,
2013-05-14 13:32:00,73.0,46.0,-100.00,SSE,149,8.0,16.0,38,0.00,,,-99.99,950.000000,,2013-05-14 18:32:00,
2013-05-14 14:01:00,73.0,46.0,-100.00,SSE,149,8.0,16.0,38,0.00,,,-99.99,950.000000,,2013-05-14 19:01:00,
2013-05-14 14:32:00,77.0,46.0,-100.00,SSE,163,11.0,20.0,34,0.00,,,0.01,1020.000000,,2013-05-14 19:32:00,
2013-05-14 14:42:00,77.0,46.0,-100.00,SSE,163,11.0,20.0,34,0.00,,,0.01,1020.000000,,2013-05-14 19:42:00,
2013-05-14 14:53:00,77.0,46.0,-100.00,SSE,163,11.0,20.0,34,0.00,,,0.01,1020.000000,,2013-05-14 19:53:00,
2013-05-14 15:02:00,77.0,46.0,-100.00,SSE,163,11.0,20.0,34,0.00,,,0.01,1020.000000,,2013-05-14 20:02:00,
2013-05-14 15:33:00,79.0,47.0,-100.00,SSW,195,12.0,25.0,32,0.00,,,0.00,959.000000,,2013-05-14 20:33:00,
2013-05-14 15:44:00,79.0,47.0,-100.00,SSW,195,12.0,25.0,32,0.00,,,0.00,959.000000,,2013-05-14 20:44:00,
2013-05-14 15:52:00,79.0,47.0,-100.00,SSW,195,12.0,25.0,32,0.00,,,0.00,959.000000,,2013-05-14 20:52:00,
2013-05-14 16:03:00,79.0,47.0,-100.00,SSW,195,12.0,25.0,32,0.00,,,0.00,959.000000,,2013-05-14 21:03:00,
2013-05-14 16:34:00,80.0,44.0,-100.00,SW,221,12.0,24.0,28,0.00,,,0.00,858.000000,,2013-05-14 21:34:00,
2013-05-14 16:43:00,80.0,44.0,-100.00,SW,221,12.0,24.0,28,0.00,,,0.00,858.000000,,2013-05-14 21:43:00,
2013-05-14 16:53:00,80.0,44.0,-100.00,SW,221,12.0,24.0,28,0.00,,,0.00,858.000000,,2013-05-14 21:53:00,
2013-05-14 17:03:00,80.0,44.0,-100.00,SW,221,12.0,24.0,28,0.00,,,0.00,858.000000,,2013-05-14 22:03:00,
2013-05-14 17:35:00,79.0,43.0,-100.00,SSW,203,9.0,25.0,28,0.00,,,0.00,603.000000,,2013-05-14 22:35:00,
2013-05-14 17:45:00,79.0,43.0,-100.00,SSW,203,9.0,25.0,28,0.00,,,0.00,603.000000,,2013-05-14 22:45:00,
2013-05-14 17:54:00,79.0,43.0,-100.00,SSW,203,9.0,25.0,28,0.00,,,0.00,603.000000,,2013-05-14 22:54:00,
2013-05-14 18:03:00,79.0,43.0,-100.00,SSW,203,9.0,25.0,28,0.00,,,0.00,603.000000,,2013-05-14 23:03:00,
2013-05-14 18:32:00,77.0,44.0,-100.00,SW,215,5.0,19.0,31,0.00,,,-99.99,219.000000,,2013-05-14 23:32:00,
2013-05-14 18:44:00,77.0,44.0,-100.00,SW,215,5.0,19.0,31,0.00,,,-99.99,219.000000,,2013-05-14 23:44:00,
2013-05-14 18:53:00,77.0,44.0,-100.00,SW,215,5.0,19.0,31,0.00,,,-99.99,219.000000,,2013-05-14 23:53:00,
2013-05-14 19:02:00,77.0,44.0,-100.00,SW,215,5.0,19.0,31,0.00,,,-99.99,219.000000,,2013-05-15 00:02:00,
2013-05-14 19:32:00,77.0,36.0,-100.00,West,267,12.0,26.0,23,0.00,,,0.00,217.000000,,2013-05-15 00:32:00,
2013-05-14 19:42:00,77.0,36.0,-100.00,West,267,12.0,26.0,23,0.00,,,0.00,217.000000,,2013-05-15 00:42:00,
2013-05-14 19:52:00,77.0,36.0,-100.00,West,267,12.0,26.0,23,0.00,,,0.00,217.000000,,2013-05-15 00:52:00,
2013-05-14 20:01:00,77.0,36.0,-100.00,West,267,12.0,26.0,23,0.00,,,0.00,217.000000,,2013-05-15 01:01:00,
2013-05-14 20:22:00,71.0,38.0,-100.00,West,267,11.0,27.0,30,0.00,,,0.00,123.000000,,2013-05-15 01:22:00,
2013-05-14 20:32:00,71.0,38.0,-100.00,West,267,11.0,27.0,30,0.00,,,0.00,123.000000,,2013-05-15 01:32:00,
2013-05-14 20:42:00,71.0,38.0,-100.00,West,267,11.0,27.0,30,0.00,,,0.00,123.000000,,2013-05-15 01:42:00,
2013-05-14 20:52:00,71.0,38.0,-100.00,West,267,11.0,27.0,30,0.00,,,0.00,123.000000,,2013-05-15 01:52:00,
2013-05-14 21:02:00,71.0,38.0,-100.00,West,267,11.0,27.0,30,0.00,,,0.00,123.000000,,2013-05-15 02:02:00,
2013-05-14 21:22:00,67.0,41.0,-100.00,West,273,9.0,21.0,39,0.00,,,0.00,9.000000,,2013-05-15 02:22:00,
2013-05-14 21:32:00,67.0,41.0,-100.00,West,273,9.0,21.0,39,0.00,,,0.00,9.000000,,2013-05-15 02:32:00,
2013-05-14 21:42:00,67.0,41.0,-100.00,West,273,9.0,21.0,39,0.00,,,0.00,9.000000,,2013-05-15 02:42:00,
2013-05-14 21:52:00,67.0,41.0,-100.00,West,273,9.0,21.0,39,0.00,,,0.00,9.000000,,2013-05-15 02:52:00,
2013-05-14 22:01:00,67.0,41.0,-100.00,West,273,9.0,21.0,39,0.00,,,0.00,9.000000,,2013-05-15 03:01:00,
2013-05-14 22:33:00,65.0,41.0,-100.00,West,260,6.0,16.0,41,0.00,,,0.00,0.000000,,2013-05-15 03:33:00,
2013-05-14 22:44:00,65.0,41.0,-100.00,West,260,6.0,16.0,41,0.00,,,0.00,0.000000,,2013-05-15 03:44:00,
2013-05-14 22:54:00,65.0,41.0,-100.00,West,260,6.0,16.0,41,0.00,,,0.00,0.000000,,2013-05-15 03:54:00,
2013-05-14 23:03:00,65.0,41.0,-100.00,West,260,6.0,16.0,41,0.00,,,0.00,0.000000,,2013-05-15 04:03:00,
2013-05-14 23:33:00,62.0,43.0,-100.00,West,280,7.0,22.0,49,0.00,,,0.00,0.000000,,2013-05-15 04:33:00,
2013-05-14 23:43:00,62.0,43.0,-100.00,West,280,7.0,22.0,49,0.00,,,0.00,0.000000,,2013-05-15 04:43:00,
2013-05-14 23:52:00,62.0,43.0,-100.00,West,280,7.0,22.0,49,0.00,,,0.00,0.000000,,2013-05-15 04:52:00,